Metropolis, IL

1:04 PM CDT on May 28, 2017 (GMT -0500)
Rural Area | | Change Station
Active Advisory: Lake Wind Advisory

Elev 348 ft 37.15 °N, 88.72 °W | Updated 41 seconds ago

Overcast
Overcast
72.1 °F
Feels Like 72 °F
N
2.7
Wind Variable Wind from SW
Gusts 8.1 mph

Today
High -- | Low -- °F
--% Chance of Precip.
Yesterday
High -- | Low -- °F
Precip. -- in
Pressure 29.88 in
Visibility 10.0 miles
Clouds Mostly Cloudy 2300 ft
Overcast 3000 ft
Heat Index 72 °F
Dew Point 66 °F
Humidity 80%
Rainfall 0.18 in
Snow Depth Not available.
5:37 AM 8:06 PM
Waxing Crescent, 12% visible
METAR KM30 281755Z AUTO 25007KT 220V280 10SM BKN023 OVC030 22/18 A2988 RMK AO2 T02180176 10226 20179
Pressure 29.88 in
Visibility 10.0 miles
Clouds Mostly Cloudy 2300 ft
Overcast 3000 ft
Heat Index 72 °F
Dew Point 66 °F
Humidity 80%
Rainfall 0.18 in
Snow Depth Not available.
5:37 AM 8:06 PM
Waxing Crescent, 12% visible
METAR KM30 281755Z AUTO 25007KT 220V280 10SM BKN023 OVC030 22/18 A2988 RMK AO2 T02180176 10226 20179

Get Your Daily Forecast Email!

Thanks for signing up!

Be on the lookout for a verification email in your inbox.

You'll start receiving severe weather alerts in your inbox..

×

10-Day Weather Forecast

Almanac

Astronomy

May. 28, 2017 Rise Set
Actual Time
Civil Twilight
Nautical Twilight
Astronomical Twilight
Moon
Length of Visible Light
Length of Day
Tomorrow will be .
, % of the Moon is Illuminated

Today's Extremes

State Highs State Lows

Community

WunderPhotos

Category 6

Welcome to Category 6. This is the collective home for Weather Underground's featured writeups by Dr. Jeff Masters (right), Bob Henson (left), Chris Burt, and other regular contributors.

Nearby

Air Quality

  Air Quality AQ Index Pollutant
Not available.

Snow Depth

Station Depth Elevation

Earthquake Activity

City Distance Mag. Time & Date
Minimum magnitude displayed is 2.5.

Coastal Water Temperatures

Place Temperature

Stations

Nearby Weather Stations

Station Location Temp. Windchill Dew Point Humidity Wind Precip. Elev Updated Type
                   

Watches & Warnings

Lake Wind Advisory
Issued: 10:21 AM CDT May. 28, 2017 – National Weather Service

... Lake Wind Advisory in effect until 8 PM CDT this evening...

The National Weather Service in Paducah has issued a lake Wind
Advisory, which is in effect until 8 PM CDT this evening.

* Timing... from 1015 am CDT to 8 PM CDT

* winds... will average 10 to 15 mph with gusts to 25 to 30 mph
from the west southwest especially for areas east of Interstate
57. Winds will gradually shift to the northwest this afternoon.

* Impacts... winds are expected to be strong enough to cause
problems for boaters on area lakes. Small boats will be the most
significantly impacted.

Precautionary/preparedness actions...

A lake Wind Advisory indicates that winds will cause rough chop
on area lakes. Small boats will be especially prone to capsizing.


Ps